Time,TemperatureF,DewpointF,PressureIn,WindDirection,WindDirectionDegrees,WindSpeedMPH,WindSpeedGustMPH,Humidity,HourlyPrecipIn,Conditions,Clouds,dailyrainin,SoftwareType,DateUTC
2013-03-09 00:03:00,37.0,13.0,-100.00,North,2,0.0,-999.0,37,0.00,,,0.45,,2013-03-09 05:03:00,
2013-03-09 00:12:00,37.0,13.0,-100.00,North,2,0.0,-999.0,37,0.00,,,0.45,,2013-03-09 05:12:00,
2013-03-09 00:22:00,37.0,13.0,-100.00,North,2,0.0,-999.0,37,0.00,,,0.45,,2013-03-09 05:22:00,
2013-03-09 00:32:00,37.0,13.0,-100.00,North,2,0.0,-999.0,37,0.00,,,0.45,,2013-03-09 05:32:00,
2013-03-09 00:42:00,37.0,13.0,-100.00,North,2,0.0,-999.0,37,0.00,,,0.45,,2013-03-09 05:42:00,
2013-03-09 01:02:00,32.0,15.0,-100.00,North,3,0.0,-999.0,49,0.00,,,0.41,,2013-03-09 06:02:00,
2013-03-09 01:11:00,32.0,15.0,-100.00,North,3,0.0,-999.0,49,0.00,,,0.41,,2013-03-09 06:11:00,
2013-03-09 01:22:00,32.0,15.0,-100.00,North,3,0.0,-999.0,49,0.00,,,0.41,,2013-03-09 06:22:00,
2013-03-09 01:32:00,32.0,15.0,-100.00,North,3,0.0,-999.0,49,0.00,,,0.41,,2013-03-09 06:32:00,
2013-03-09 01:42:00,32.0,15.0,-100.00,North,3,0.0,-999.0,49,0.00,,,0.41,,2013-03-09 06:42:00,
2013-03-09 02:01:00,31.0,16.0,-100.00,North,-999,0.0,-999.0,53,0.00,,,0.40,,2013-03-09 07:01:00,
2013-03-09 02:11:00,31.0,16.0,-100.00,North,-999,0.0,-999.0,53,0.00,,,0.40,,2013-03-09 07:11:00,
2013-03-09 02:21:00,31.0,16.0,-100.00,North,-999,0.0,-999.0,53,0.00,,,0.40,,2013-03-09 07:21:00,
2013-03-09 02:32:00,31.0,16.0,-100.00,North,-999,0.0,-999.0,53,0.00,,,0.40,,2013-03-09 07:32:00,
2013-03-09 02:42:00,31.0,16.0,-100.00,North,-999,0.0,-999.0,53,0.00,,,0.40,,2013-03-09 07:42:00,
2013-03-09 03:01:00,28.0,17.0,-100.00,North,-999,0.0,-999.0,63,0.00,,,0.40,,2013-03-09 08:01:00,
2013-03-09 03:11:00,28.0,17.0,-100.00,North,-999,0.0,-999.0,63,0.00,,,0.40,,2013-03-09 08:11:00,
2013-03-09 03:22:00,28.0,17.0,-100.00,North,-999,0.0,-999.0,63,0.00,,,0.40,,2013-03-09 08:22:00,
2013-03-09 03:32:00,28.0,17.0,-100.00,North,-999,0.0,-999.0,63,0.00,,,0.40,,2013-03-09 08:32:00,
2013-03-09 03:42:00,28.0,17.0,-100.00,North,-999,0.0,-999.0,63,0.00,,,0.40,,2013-03-09 08:42:00,
2013-03-09 04:02:00,27.0,16.0,-100.00,North,-999,0.0,-999.0,63,0.00,,,0.39,,2013-03-09 09:02:00,
2013-03-09 04:12:00,27.0,16.0,-100.00,North,-999,0.0,-999.0,63,0.00,,,0.39,,2013-03-09 09:12:00,
2013-03-09 04:21:00,27.0,16.0,-100.00,North,-999,0.0,-999.0,63,0.00,,,0.39,,2013-03-09 09:21:00,
2013-03-09 04:32:00,27.0,16.0,-100.00,North,-999,0.0,-999.0,63,0.00,,,0.39,,2013-03-09 09:32:00,
2013-03-09 04:42:00,27.0,16.0,-100.00,North,-999,0.0,-999.0,63,0.00,,,0.39,,2013-03-09 09:42:00,
2013-03-09 05:01:00,26.0,17.0,-100.00,North,-999,0.0,-999.0,67,0.00,,,0.39,,2013-03-09 10:01:00,
2013-03-09 05:11:00,26.0,17.0,-100.00,North,-999,0.0,-999.0,67,0.00,,,0.39,,2013-03-09 10:11:00,
2013-03-09 05:22:00,26.0,17.0,-100.00,North,-999,0.0,-999.0,67,0.00,,,0.39,,2013-03-09 10:22:00,
2013-03-09 05:32:00,26.0,17.0,-100.00,North,-999,0.0,-999.0,67,0.00,,,0.39,,2013-03-09 10:32:00,
2013-03-09 05:42:00,26.0,17.0,-100.00,North,-999,0.0,-999.0,67,0.00,,,0.39,,2013-03-09 10:42:00,
2013-03-09 06:01:00,24.0,16.0,-100.00,North,-999,0.0,-999.0,71,0.00,,,0.39,,2013-03-09 11:01:00,
2013-03-09 06:11:00,24.0,16.0,-100.00,North,-999,0.0,-999.0,71,0.00,,,0.39,,2013-03-09 11:11:00,
2013-03-09 06:22:00,24.0,16.0,-100.00,North,-999,0.0,-999.0,71,0.00,,,0.39,,2013-03-09 11:22:00,
2013-03-09 06:32:00,24.0,16.0,-100.00,North,-999,0.0,-999.0,71,0.00,,,0.39,,2013-03-09 11:32:00,
2013-03-09 06:42:00,24.0,16.0,-100.00,North,-999,0.0,-999.0,71,0.00,,,0.39,,2013-03-09 11:42:00,
2013-03-09 07:02:00,24.0,17.0,-100.00,North,-999,0.0,-999.0,73,0.00,,,0.39,,2013-03-09 12:02:00,
2013-03-09 07:12:00,24.0,17.0,-100.00,North,-999,0.0,-999.0,73,0.00,,,0.39,,2013-03-09 12:12:00,
2013-03-09 07:22:00,24.0,17.0,-100.00,North,-999,0.0,-999.0,73,0.00,,,0.39,,2013-03-09 12:22:00,
2013-03-09 07:32:00,24.0,17.0,-100.00,North,-999,0.0,-999.0,73,0.00,,,0.39,,2013-03-09 12:32:00,
2013-03-09 07:42:00,24.0,17.0,-100.00,North,-999,0.0,-999.0,73,0.00,,,0.39,,2013-03-09 12:42:00,
2013-03-09 08:02:00,30.0,18.0,-100.00,North,-999,0.0,-999.0,60,0.00,,,0.38,,2013-03-09 13:02:00,
2013-03-09 08:11:00,30.0,18.0,-100.00,North,-999,0.0,-999.0,60,0.00,,,0.38,,2013-03-09 13:11:00,
2013-03-09 08:22:00,30.0,18.0,-100.00,North,-999,0.0,-999.0,60,0.00,,,0.38,,2013-03-09 13:22:00,
2013-03-09 08:32:00,30.0,18.0,-100.00,North,-999,0.0,-999.0,60,0.00,,,0.38,,2013-03-09 13:32:00,
2013-03-09 08:42:00,30.0,18.0,-100.00,North,-999,0.0,-999.0,60,0.00,,,0.38,,2013-03-09 13:42:00,
2013-03-09 09:01:00,34.0,17.0,-100.00,North,1,0.0,-999.0,49,0.00,,,0.35,,2013-03-09 14:01:00,
2013-03-09 09:11:00,34.0,17.0,-100.00,North,1,0.0,-999.0,49,0.00,,,0.35,,2013-03-09 14:11:00,
2013-03-09 09:22:00,34.0,17.0,-100.00,North,1,0.0,-999.0,49,0.00,,,0.35,,2013-03-09 14:22:00,
2013-03-09 09:32:00,34.0,17.0,-100.00,North,1,0.0,-999.0,49,0.00,,,0.35,,2013-03-09 14:32:00,
2013-03-09 09:42:00,34.0,17.0,-100.00,North,1,0.0,-999.0,49,0.00,,,0.35,,2013-03-09 14:42:00,
2013-03-09 10:02:00,38.0,14.0,-100.00,North,-999,0.0,-999.0,38,0.00,,,0.35,,2013-03-09 15:02:00,
2013-03-09 10:12:00,38.0,14.0,-100.00,North,-999,0.0,-999.0,38,0.00,,,0.35,,2013-03-09 15:12:00,
2013-03-09 10:22:00,38.0,14.0,-100.00,North,-999,0.0,-999.0,38,0.00,,,0.35,,2013-03-09 15:22:00,
2013-03-09 10:32:00,38.0,14.0,-100.00,North,-999,0.0,-999.0,38,0.00,,,0.35,,2013-03-09 15:32:00,
2013-03-09 10:42:00,38.0,14.0,-100.00,North,-999,0.0,-999.0,38,0.00,,,0.35,,2013-03-09 15:42:00,
2013-03-09 11:01:00,42.0,13.0,-100.00,North,1,0.0,-999.0,30,0.00,,,0.33,,2013-03-09 16:01:00,
2013-03-09 11:12:00,42.0,13.0,-100.00,North,1,0.0,-999.0,30,0.00,,,0.33,,2013-03-09 16:12:00,
2013-03-09 11:22:00,42.0,13.0,-100.00,North,1,0.0,-999.0,30,0.00,,,0.33,,2013-03-09 16:22:00,
2013-03-09 11:32:00,42.0,13.0,-100.00,North,1,0.0,-999.0,30,0.00,,,0.33,,2013-03-09 16:32:00,
2013-03-09 11:42:00,42.0,13.0,-100.00,North,1,0.0,-999.0,30,0.00,,,0.33,,2013-03-09 16:42:00,
2013-03-09 12:01:00,45.0,8.0,-100.00,North,-999,0.0,-999.0,22,0.00,,,0.33,,2013-03-09 17:01:00,
2013-03-09 12:11:00,45.0,8.0,-100.00,North,-999,0.0,-999.0,22,0.00,,,0.33,,2013-03-09 17:11:00,
2013-03-09 12:22:00,45.0,8.0,-100.00,North,-999,0.0,-999.0,22,0.00,,,0.33,,2013-03-09 17:22:00,
2013-03-09 12:32:00,45.0,8.0,-100.00,North,-999,0.0,-999.0,22,0.00,,,0.33,,2013-03-09 17:32:00,
2013-03-09 12:42:00,45.0,8.0,-100.00,North,-999,0.0,-999.0,22,0.00,,,0.33,,2013-03-09 17:42:00,
2013-03-09 13:02:00,52.0,3.0,-100.00,North,1,0.0,-999.0,13,0.00,,,0.33,,2013-03-09 18:02:00,
2013-03-09 13:11:00,52.0,3.0,-100.00,North,1,0.0,-999.0,13,0.00,,,0.33,,2013-03-09 18:11:00,
2013-03-09 13:22:00,52.0,3.0,-100.00,North,1,0.0,-999.0,13,0.00,,,0.33,,2013-03-09 18:22:00,
2013-03-09 13:32:00,52.0,3.0,-100.00,North,1,0.0,-999.0,13,0.00,,,0.33,,2013-03-09 18:32:00,
2013-03-09 13:42:00,52.0,3.0,-100.00,North,1,0.0,-999.0,13,0.00,,,0.33,,2013-03-09 18:42:00,
2013-03-09 14:02:00,57.0,3.0,-100.00,North,-999,0.0,-999.0,11,0.00,,,0.33,,2013-03-09 19:02:00,
2013-03-09 14:12:00,57.0,3.0,-100.00,North,-999,0.0,-999.0,11,0.00,,,0.33,,2013-03-09 19:12:00,
2013-03-09 14:22:00,57.0,3.0,-100.00,North,-999,0.0,-999.0,11,0.00,,,0.33,,2013-03-09 19:22:00,
2013-03-09 14:32:00,57.0,3.0,-100.00,North,-999,0.0,-999.0,11,0.00,,,0.33,,2013-03-09 19:32:00,
2013-03-09 14:42:00,57.0,3.0,-100.00,North,-999,0.0,-999.0,11,0.00,,,0.33,,2013-03-09 19:42:00,
2013-03-09 15:02:00,63.0,0.0,-100.00,North,-999,0.0,-999.0,8,0.00,,,0.33,,2013-03-09 20:02:00,
2013-03-09 15:11:00,63.0,0.0,-100.00,North,-999,0.0,-999.0,8,0.00,,,0.33,,2013-03-09 20:11:00,
2013-03-09 15:22:00,63.0,0.0,-100.00,North,-999,0.0,-999.0,8,0.00,,,0.33,,2013-03-09 20:22:00,
2013-03-09 15:32:00,63.0,0.0,-100.00,North,-999,0.0,-999.0,8,0.00,,,0.33,,2013-03-09 20:32:00,
2013-03-09 15:42:00,63.0,0.0,-100.00,North,-999,0.0,-999.0,8,0.00,,,0.33,,2013-03-09 20:42:00,
2013-03-09 16:02:00,62.0,2.0,-100.00,North,-999,0.0,-999.0,9,0.00,,,0.00,,2013-03-09 21:02:00,
2013-03-09 16:12:00,62.0,2.0,-100.00,North,-999,0.0,-999.0,9,0.00,,,0.00,,2013-03-09 21:12:00,
2013-03-09 16:22:00,62.0,2.0,-100.00,North,-999,0.0,-999.0,9,0.00,,,0.00,,2013-03-09 21:22:00,
2013-03-09 16:32:00,62.0,2.0,-100.00,North,-999,0.0,-999.0,9,0.00,,,0.00,,2013-03-09 21:32:00,
2013-03-09 16:42:00,62.0,2.0,-100.00,North,-999,0.0,-999.0,9,0.00,,,0.00,,2013-03-09 21:42:00,
2013-03-09 17:01:00,61.0,6.0,-100.00,North,-999,0.0,-999.0,11,0.00,,,0.00,,2013-03-09 22:01:00,
2013-03-09 17:11:00,61.0,6.0,-100.00,North,-999,0.0,-999.0,11,0.00,,,0.00,,2013-03-09 22:11:00,
2013-03-09 17:22:00,61.0,6.0,-100.00,North,-999,0.0,-999.0,11,0.00,,,0.00,,2013-03-09 22:22:00,
2013-03-09 17:32:00,61.0,6.0,-100.00,North,-999,0.0,-999.0,11,0.00,,,0.00,,2013-03-09 22:32:00,
2013-03-09 17:42:00,61.0,6.0,-100.00,North,-999,0.0,-999.0,11,0.00,,,0.00,,2013-03-09 22:42:00,
2013-03-09 18:01:00,49.0,13.0,-100.00,North,-999,0.0,-999.0,23,0.00,,,0.00,,2013-03-09 23:01:00,
2013-03-09 18:11:00,49.0,13.0,-100.00,North,-999,0.0,-999.0,23,0.00,,,0.00,,2013-03-09 23:11:00,
2013-03-09 18:22:00,49.0,13.0,-100.00,North,-999,0.0,-999.0,23,0.00,,,0.00,,2013-03-09 23:22:00,
2013-03-09 18:32:00,49.0,13.0,-100.00,North,-999,0.0,-999.0,23,0.00,,,0.00,,2013-03-09 23:32:00,
2013-03-09 18:42:00,49.0,13.0,-100.00,North,-999,0.0,-999.0,23,0.00,,,0.00,,2013-03-09 23:42:00,
2013-03-09 19:02:00,42.0,21.0,-100.00,North,5,0.0,-999.0,43,0.00,,,0.00,,2013-03-10 00:02:00,
2013-03-09 19:12:00,42.0,21.0,-100.00,North,5,0.0,-999.0,43,0.00,,,0.00,,2013-03-10 00:12:00,
2013-03-09 19:22:00,42.0,21.0,-100.00,North,5,0.0,-999.0,43,0.00,,,0.00,,2013-03-10 00:22:00,
2013-03-09 19:32:00,42.0,21.0,-100.00,North,5,0.0,-999.0,43,0.00,,,0.00,,2013-03-10 00:32:00,
2013-03-09 19:42:00,42.0,21.0,-100.00,North,5,0.0,-999.0,43,0.00,,,0.00,,2013-03-10 00:42:00,
2013-03-09 20:01:00,38.0,22.0,-100.00,North,7,0.0,-999.0,52,0.00,,,0.00,,2013-03-10 01:01:00,
2013-03-09 20:11:00,38.0,22.0,-100.00,North,7,0.0,-999.0,52,0.00,,,0.00,,2013-03-10 01:11:00,
2013-03-09 20:22:00,38.0,22.0,-100.00,North,7,0.0,-999.0,52,0.00,,,0.00,,2013-03-10 01:22:00,
2013-03-09 20:32:00,38.0,22.0,-100.00,North,7,0.0,-999.0,52,0.00,,,0.00,,2013-03-10 01:32:00,
2013-03-09 20:42:00,38.0,22.0,-100.00,North,7,0.0,-999.0,52,0.00,,,0.00,,2013-03-10 01:42:00,
2013-03-09 21:01:00,36.0,25.0,-100.00,NNE,23,0.0,-999.0,65,0.00,,,0.00,,2013-03-10 02:01:00,
2013-03-09 21:11:00,36.0,25.0,-100.00,NNE,23,0.0,-999.0,65,0.00,,,0.00,,2013-03-10 02:11:00,
2013-03-09 21:22:00,36.0,25.0,-100.00,NNE,23,0.0,-999.0,65,0.00,,,0.00,,2013-03-10 02:22:00,
2013-03-09 21:32:00,36.0,25.0,-100.00,NNE,23,0.0,-999.0,65,0.00,,,0.00,,2013-03-10 02:32:00,
2013-03-09 21:42:00,36.0,25.0,-100.00,NNE,23,0.0,-999.0,65,0.00,,,0.00,,2013-03-10 02:42:00,
2013-03-09 22:02:00,33.0,26.0,-100.00,North,8,0.0,-999.0,74,0.00,,,0.00,,2013-03-10 03:02:00,
2013-03-09 22:12:00,33.0,26.0,-100.00,North,8,0.0,-999.0,74,0.00,,,0.00,,2013-03-10 03:12:00,
2013-03-09 22:22:00,33.0,26.0,-100.00,North,8,0.0,-999.0,74,0.00,,,0.00,,2013-03-10 03:22:00,
2013-03-09 22:32:00,33.0,26.0,-100.00,North,8,0.0,-999.0,74,0.00,,,0.00,,2013-03-10 03:32:00,
2013-03-09 22:42:00,33.0,26.0,-100.00,North,8,0.0,-999.0,74,0.00,,,0.00,,2013-03-10 03:42:00,
2013-03-09 23:01:00,32.0,25.0,-100.00,North,-999,0.0,-999.0,76,0.00,,,0.00,,2013-03-10 04:01:00,
2013-03-09 23:11:00,32.0,25.0,-100.00,North,-999,0.0,-999.0,76,0.00,,,0.00,,2013-03-10 04:11:00,
2013-03-09 23:22:00,32.0,25.0,-100.00,North,-999,0.0,-999.0,76,0.00,,,0.00,,2013-03-10 04:22:00,
2013-03-09 23:32:00,32.0,25.0,-100.00,North,-999,0.0,-999.0,76,0.00,,,0.00,,2013-03-10 04:32:00,
2013-03-09 23:42:00,32.0,25.0,-100.00,North,-999,0.0,-999.0,76,0.00,,,0.00,,2013-03-10 04:42:00,